Time;durP1;ratioP1;P1;durP2;ratioP2;P2;SDS_P1;SDS_P2;PMS_P1;PMS_P2;Temp;Humidity;BMP_temperature;BMP_pressure;BME280_temperature;BME280_humidity;BME280_pressure;Samples;Min_cycle;Max_cycle;Signal;HPM_P1;HPM_P2
2022/09/20 00:01:13;;;;;;;10.85;3.38;;;;;;;18.05;48.32;101075.81;5029291;28;20045;-80
2022/09/20 00:03:44;;;;;;;6.32;3.38;;;;;;;18.49;47.58;101141.63;5028064;28;20061;-80
2022/09/20 00:06:16;;;;;;;6.30;3.33;;;;;;;18.36;48.65;101136.84;5027862;28;20408;-80
2022/09/20 00:08:44;;;;;;;6.30;3.15;;;;;;;18.27;48.54;101137.88;5027782;28;20527;-80
2022/09/20 00:11:21;;;;;;;9.48;3.08;;;;;;;18.18;49.29;101145.16;5029345;28;20059;-80
2022/09/20 00:13:50;;;;;;;5.57;3.10;;;;;;;17.80;49.82;101101.06;5027813;28;20436;-80
2022/09/20 00:16:29;;;;;;;8.35;3.17;;;;;;;17.06;50.58;101002.72;5029282;28;20061;-81
2022/09/20 00:19:01;;;;;;;8.63;3.22;;;;;;;17.93;50.26;101152.41;5028902;28;20531;-81
2022/09/20 00:21:30;;;;;;;9.35;3.05;;;;;;;17.91;50.49;101154.44;5028040;28;20042;-79
2022/09/20 00:23:57;;;;;;;8.35;3.65;;;;;;;17.57;51.06;101099.06;5027573;28;20405;-79
2022/09/20 00:26:25;;;;;;;6.13;3.75;;;;;;;17.70;50.84;101125.41;5028907;28;20045;-82
2022/09/20 00:28:52;;;;;;;11.75;3.83;;;;;;;17.46;51.08;101096.75;5027882;28;20144;-78
2022/09/20 00:31:18;;;;;;;3.53;2.65;;;;;;;17.45;50.74;101106.66;5027526;28;20143;-78
2022/09/20 00:36:31;;;;;;;6.47;3.13;;;;;;;17.34;50.58;101104.31;5028591;28;20116;-78
2022/09/20 00:38:59;;;;;;;9.98;4.10;;;;;;;17.37;51.66;101106.66;5027356;28;20493;-80
2022/09/20 00:41:27;;;;;;;7.28;4.07;;;;;;;17.79;52.03;101166.50;5027030;28;20416;-79
2022/09/20 00:43:54;;;;;;;9.85;4.75;;;;;;;16.99;52.45;101068.78;5027318;28;20136;-80
2022/09/20 00:46:36;;;;;;;14.40;4.40;;;;;;;17.62;52.28;101169.22;5026904;28;20037;-79
2022/09/20 00:49:35;;;;;;;6.60;5.30;;;;;;;17.60;52.93;101160.50;5028613;28;20045;-80
2022/09/20 00:52:02;;;;;;;9.00;5.57;;;;;;;17.00;53.45;101074.97;5018307;28;20520;-78
2022/09/20 00:54:30;;;;;;;8.90;5.43;;;;;;;17.45;54.40;101163.03;5027148;28;20076;-79
2022/09/20 00:56:57;;;;;;;10.75;6.97;;;;;;;17.36;54.58;101155.97;5027248;28;20239;-80
2022/09/20 00:59:33;;;;;;;9.80;7.85;;;;;;;17.41;55.80;101147.41;5028087;28;20193;-79
2022/09/20 01:02:24;;;;;;;13.48;7.90;;;;;;;17.55;55.64;101178.09;5026904;28;20073;-79
2022/09/20 01:04:51;;;;;;;13.13;7.47;;;;;;;17.55;55.54;101181.63;5029805;28;20108;-79
2022/09/20 01:07:21;;;;;;;8.23;7.05;;;;;;;17.47;55.71;101178.94;5028962;28;20136;-79
2022/09/20 01:09:49;;;;;;;11.07;7.15;;;;;;;17.37;56.58;101163.00;5026777;28;20063;-79
2022/09/20 01:12:39;;;;;;;8.65;7.05;;;;;;;16.94;56.49;101105.13;5027174;28;20342;-80
2022/09/20 01:15:08;;;;;;;11.80;6.10;;;;;;;17.01;55.82;101124.91;5026709;28;20140;-79
2022/09/20 01:17:38;;;;;;;11.88;6.90;;;;;;;17.33;56.31;101182.28;5026626;28;20492;-79
2022/09/20 01:20:13;;;;;;;11.52;5.93;;;;;;;17.19;56.16;101152.44;5028029;28;20289;-80
2022/09/20 01:22:56;;;;;;;11.35;5.43;;;;;;;17.37;56.26;101180.94;5026598;28;20053;-78
2022/09/20 01:25:45;;;;;;;12.02;5.25;;;;;;;17.35;55.89;101177.59;5027869;28;20053;-79
2022/09/20 01:28:12;;;;;;;11.13;5.20;;;;;;;17.35;56.17;101180.28;5026494;28;20089;-79
2022/09/20 01:30:59;;;;;;;6.50;5.28;;;;;;;16.63;56.49;101071.69;5026180;28;20424;-80
2022/09/20 01:33:45;;;;;;;8.27;5.75;;;;;;;17.34;56.83;101190.19;5026863;28;20053;-80
2022/09/20 01:36:17;;;;;;;9.32;6.32;;;;;;;17.23;56.35;101172.56;5026443;28;20046;-79
2022/09/20 01:38:50;;;;;;;12.02;6.60;;;;;;;17.02;56.46;101138.16;5025835;28;20046;-79
2022/09/20 01:41:25;;;;;;;8.38;6.22;;;;;;;16.86;56.93;101117.50;5026246;28;20057;-80
2022/09/20 01:43:57;;;;;;;10.70;5.72;;;;;;;17.11;56.27;101147.03;5026089;28;20081;-79
2022/09/20 01:46:32;;;;;;;12.48;5.97;;;;;;;17.33;56.24;101166.19;5026196;28;20081;-79
2022/09/20 01:49:33;;;;;;;9.75;5.93;;;;;;;17.63;56.93;101227.28;5025983;28;20049;-80
2022/09/20 01:52:26;;;;;;;10.63;6.28;;;;;;;17.63;56.28;101232.63;5026010;28;20527;-80
2022/09/20 01:55:31;;;;;;;8.23;5.45;;;;;;;17.66;55.60;101221.56;5027324;28;20111;-79
2022/09/20 01:58:15;;;;;;;8.10;5.30;;;;;;;17.84;55.58;101237.53;4994425;28;20060;-79
2022/09/20 02:00:53;;;;;;;7.30;5.40;;;;;;;17.84;55.34;101252.78;5025604;28;20045;-80
2022/09/20 02:03:36;;;;;;;9.93;5.43;;;;;;;17.73;54.49;101209.13;5027761;28;20061;-79
2022/09/20 02:06:27;;;;;;;10.43;5.88;;;;;;;17.88;55.05;101251.47;5025751;28;20050;-79
2022/09/20 02:09:17;;;;;;;13.68;6.15;;;;;;;17.72;54.86;101253.13;5025696;28;20071;-79
2022/09/20 02:11:58;;;;;;;14.95;6.43;;;;;;;17.37;54.79;101197.06;5025724;28;20059;-79
2022/09/20 02:14:40;;;;;;;12.57;6.30;;;;;;;17.67;55.36;101254.59;5025281;28;20141;-81
2022/09/20 02:17:11;;;;;;;13.07;6.85;;;;;;;17.63;55.42;101251.44;5026086;28;20478;-79
2022/09/20 02:20:15;;;;;;;7.63;5.95;;;;;;;17.73;55.52;101249.41;5025456;28;20064;-80
2022/09/20 02:23:06;;;;;;;10.07;6.13;;;;;;;17.65;55.76;101245.91;5026606;28;20489;-79
2022/09/20 02:26:04;;;;;;;9.60;5.43;;;;;;;17.69;55.99;101242.72;5025405;28;20073;-81
2022/09/20 02:29:15;;;;;;;11.13;5.88;;;;;;;17.60;56.69;101243.72;5025423;28;20053;-80
2022/09/20 02:31:59;;;;;;;10.07;6.63;;;;;;;17.56;57.05;101252.28;5010615;28;20132;-80
2022/09/20 02:34:50;;;;;;;8.10;5.35;;;;;;;17.53;56.86;101258.81;5025524;28;20460;-81
2022/09/20 02:37:44;;;;;;;9.32;5.03;;;;;;;17.61;56.53;101256.13;5024957;28;20045;-80
2022/09/20 02:40:19;;;;;;;13.57;5.07;;;;;;;17.43;56.65;101228.59;5025424;28;20046;-81
2022/09/20 02:43:05;;;;;;;8.55;4.97;;;;;;;17.57;56.76;101248.56;5024906;28;20413;-81
2022/09/20 02:45:43;;;;;;;10.85;4.88;;;;;;;17.66;56.45;101259.16;5025155;28;20056;-83
2022/09/20 02:48:09;;;;;;;11.23;4.28;;;;;;;17.72;56.14;101257.66;5024692;28;20152;-81
2022/09/20 02:51:00;;;;;;;10.50;4.43;;;;;;;17.64;56.45;101266.53;5025129;28;20513;-80
2022/09/20 02:53:48;;;;;;;10.13;3.15;;;;;;;17.63;56.78;101264.84;5025261;28;20067;-81
2022/09/20 02:56:32;;;;;;;9.93;3.65;;;;;;;17.89;55.81;101267.44;5025158;28;20083;-81
2022/09/20 02:59:15;;;;;;;8.10;3.50;;;;;;;17.85;55.92;101263.38;5024259;28;20412;-81
2022/09/20 03:01:53;;;;;;;10.85;3.70;;;;;;;17.49;56.42;101235.97;5024758;28;20045;-81
2022/09/20 03:04:24;;;;;;;15.45;3.97;;;;;;;17.67;56.70;101276.09;5024712;28;20555;-81
2022/09/20 03:06:56;;;;;;;14.40;3.25;;;;;;;17.69;57.43;101266.88;5025462;28;20084;-80
2022/09/20 03:10:15;;;;;;;13.68;3.63;;;;;;;17.69;57.25;101264.19;5024604;28;20324;-80
2022/09/20 03:12:54;;;;;;;10.63;3.80;;;;;;;17.57;57.29;101249.41;5013147;28;20497;-80
2022/09/20 03:16:04;;;;;;;21.13;3.58;;;;;;;17.69;58.33;101256.16;5025116;28;20092;-82
2022/09/20 03:18:52;;;;;;;11.15;3.75;;;;;;;17.61;58.93;101256.13;5024832;28;20481;-81
2022/09/20 03:21:57;;;;;;;15.93;3.38;;;;;;;17.63;59.11;101259.50;5024757;28;20497;-82
2022/09/20 03:24:56;;;;;;;15.45;2.92;;;;;;;17.67;58.30;101254.59;5024613;28;20497;-81
2022/09/20 03:27:47;;;;;;;11.57;2.90;;;;;;;17.65;59.16;101262.84;5001984;28;20045;-80
2022/09/20 03:30:35;;;;;;;14.45;3.45;;;;;;;17.28;59.67;101202.44;5024599;28;20327;-80
2022/09/20 03:33:32;;;;;;;19.40;3.70;;;;;;;17.71;59.34;101256.78;5024475;28;20053;-79
2022/09/20 03:36:27;;;;;;;13.30;3.30;;;;;;;17.69;59.33;101261.53;5024274;28;20051;-83
2022/09/20 03:39:12;;;;;;;15.63;3.60;;;;;;;17.83;58.67;101265.41;5004336;28;20377;-80
2022/09/20 03:42:18;;;;;;;8.95;3.15;;;;;;;17.75;60.13;101259.16;5005109;28;20085;-81
2022/09/20 03:44:47;;;;;;;17.17;2.90;;;;;;;17.70;59.66;101257.81;5005936;28;20049;-80
2022/09/20 03:47:20;;;;;;;9.13;2.60;;;;;;;17.71;59.63;101256.78;5004861;28;20060;-81
2022/09/20 03:50:07;;;;;;;13.80;2.88;;;;;;;17.63;59.83;101239.84;5020102;28;20069;-81
2022/09/20 03:52:53;;;;;;;16.77;2.75;;;;;;;17.90;59.63;101260.19;5014115;28;20050;-80
2022/09/20 03:55:41;;;;;;;14.98;2.83;;;;;;;17.64;60.06;101242.34;5024383;28;20053;-80
2022/09/20 03:58:33;;;;;;;11.25;2.53;;;;;;;17.59;59.65;101236.66;5024375;28;20397;-79
2022/09/20 04:01:17;;;;;;;18.15;3.08;;;;;;;17.74;59.56;101261.00;5024605;28;20595;-82
2022/09/20 04:03:48;;;;;;;14.68;2.58;;;;;;;17.85;58.88;101254.50;5024991;28;20452;-80
2022/09/20 04:06:17;;;;;;;13.73;2.25;;;;;;;17.73;59.28;101257.47;5026106;28;20140;-81
2022/09/20 04:08:52;;;;;;;7.05;1.92;;;;;;;17.72;59.27;101247.75;5025456;28;20081;-83
2022/09/20 04:12:01;;;;;;;7.90;2.00;;;;;;;17.75;59.49;101254.63;5024152;28;20391;-81
2022/09/20 04:14:40;;;;;;;6.95;2.10;;;;;;;17.80;59.03;101248.75;5016672;28;20049;-80
2022/09/20 04:17:19;;;;;;;12.45;2.40;;;;;;;17.76;59.13;101242.03;5024074;28;20206;-80
2022/09/20 04:19:53;;;;;;;9.77;1.95;;;;;;;17.51;59.42;101207.97;5023878;28;20504;-80
2022/09/20 04:22:23;;;;;;;8.13;2.45;;;;;;;17.73;58.87;101249.41;5027072;28;20277;-80
2022/09/20 04:24:55;;;;;;;7.65;2.25;;;;;;;17.60;59.26;101227.63;5026445;28;20144;-80
2022/09/20 04:27:42;;;;;;;9.00;2.22;;;;;;;17.66;59.20;101232.28;5027502;28;20079;-80
2022/09/20 04:30:28;;;;;;;6.22;2.10;;;;;;;17.71;59.19;101239.84;5028460;28;20053;-81
2022/09/20 04:33:12;;;;;;;11.05;2.65;;;;;;;17.62;59.65;101241.72;5028575;28;20045;-81
2022/09/20 04:38:51;;;;;;;11.30;2.88;;;;;;;17.57;60.38;101249.41;5029277;28;20049;-78
2022/09/20 04:41:33;;;;;;;12.05;2.40;;;;;;;17.75;59.23;101246.56;5029039;28;20131;-78
2022/09/20 04:44:39;;;;;;;14.05;2.50;;;;;;;17.77;59.03;101244.56;5028749;28;20505;-79
2022/09/20 04:47:20;;;;;;;7.88;2.63;;;;;;;17.72;59.09;101247.75;5028179;28;20069;-81
2022/09/20 04:50:21;;;;;;;11.85;2.30;;;;;;;17.68;59.38;101246.41;5027658;28;20136;-79
2022/09/20 04:53:17;;;;;;;8.77;2.93;;;;;;;17.83;58.82;101249.28;5027875;28;20049;-80
2022/09/20 04:55:52;;;;;;;8.48;2.60;;;;;;;17.74;59.26;101242.19;5028525;28;20492;-77
2022/09/20 04:58:47;;;;;;;7.93;2.63;;;;;;;17.74;59.64;101244.88;5028232;28;20065;-80
2022/09/20 05:01:38;;;;;;;15.00;2.35;;;;;;;17.71;60.08;101248.75;5028507;28;20130;-80
2022/09/20 05:04:21;;;;;;;11.80;2.30;;;;;;;17.70;60.31;101244.38;5028304;28;20050;-78
2022/09/20 05:07:13;;;;;;;15.90;3.00;;;;;;;17.65;60.17;101241.38;5044930;28;20395;-80
2022/09/20 05:09:46;;;;;;;10.13;2.85;;;;;;;17.63;60.62;101243.38;5028230;28;20056;-81
2022/09/20 05:12:18;;;;;;;13.60;2.65;;;;;;;17.67;60.81;101260.84;5027228;28;20419;-80
2022/09/20 05:15:00;;;;;;;12.73;3.35;;;;;;;17.72;60.69;101258.50;5027099;28;20057;-79
2022/09/20 05:18:01;;;;;;;12.18;2.88;;;;;;;17.66;60.96;101259.16;5043636;28;20108;-80
2022/09/20 05:20:36;;;;;;;9.68;2.42;;;;;;;17.61;60.87;101263.34;5027339;28;20492;-80
2022/09/20 05:23:11;;;;;;;12.73;3.53;;;;;;;17.54;61.51;101244.38;5026652;28;20045;-80
2022/09/20 05:25:50;;;;;;;13.50;3.45;;;;;;;17.64;61.38;101266.53;5043434;28;20505;-78
2022/09/20 05:28:52;;;;;;;11.80;3.00;;;;;;;17.50;61.36;101233.16;5026229;28;20088;-81
2022/09/20 05:31:49;;;;;;;13.05;2.80;;;;;;;17.53;61.97;101248.06;5027155;28;20428;-79
2022/09/20 05:34:31;;;;;;;9.02;3.05;;;;;;;17.60;61.73;101259.81;5024379;28;20111;-79
2022/09/20 05:37:04;;;;;;;;;;;;;;;17.61;62.28;101274.91;5025979;28;20046;-81
2022/09/20 05:39:46;;;;;;;15.45;4.45;;;;;;;17.62;62.02;101273.06;5041857;28;19932;-80
2022/09/20 05:42:22;;;;;;;10.52;3.15;;;;;;;17.49;62.02;101263.66;5025604;28;20042;-79
2022/09/20 05:45:00;;;;;;;13.68;3.05;;;;;;;17.60;62.59;101273.25;5025904;28;20041;-80
2022/09/20 05:47:39;;;;;;;12.57;3.78;;;;;;;17.25;62.03;101220.69;5042667;28;20527;-80
2022/09/20 05:50:08;;;;;;;21.38;3.58;;;;;;;17.66;61.74;101279.78;5026284;28;20049;-79
2022/09/20 05:52:59;;;;;;;14.30;3.70;;;;;;;17.48;61.18;101250.41;5027256;28;20207;-80
2022/09/20 05:55:50;;;;;;;17.88;4.35;;;;;;;17.73;61.01;101284.31;5026821;28;20136;-80
2022/09/20 05:58:38;;;;;;;13.77;2.83;;;;;;;17.57;60.79;101243.19;5027591;28;20052;-80
2022/09/20 06:01:45;;;;;;;18.90;3.53;;;;;;;17.80;61.19;101281.00;5026853;28;20053;-80
2022/09/20 06:04:18;;;;;;;11.18;3.55;;;;;;;17.85;61.17;101279.50;5034935;28;20050;-81
2022/09/20 06:06:51;;;;;;;10.73;3.13;;;;;;;17.89;60.94;101286.22;5043223;28;20060;-78
2022/09/20 06:09:57;;;;;;;11.88;3.75;;;;;;;17.75;61.27;101265.38;5025667;28;20113;-77
2022/09/20 06:12:42;;;;;;;15.30;3.75;;;;;;;17.89;61.13;101280.03;5042545;28;20057;-78
2022/09/20 06:15:28;;;;;;;8.98;3.20;;;;;;;17.94;61.31;101283.03;5027050;28;20081;-77
2022/09/20 06:18:04;;;;;;;8.75;3.83;;;;;;;17.89;61.28;101274.66;5026138;28;20045;-79
2022/09/20 06:20:43;;;;;;;8.98;3.13;;;;;;;18.03;60.79;101292.75;5028037;28;20536;-77
2022/09/20 06:23:10;;;;;;;22.55;4.50;;;;;;;18.07;60.80;101288.72;5025508;28;20125;-79
2022/09/20 06:25:56;;;;;;;11.85;2.88;;;;;;;18.04;61.11;101281.00;5027378;28;20152;-78
2022/09/20 06:28:32;;;;;;;14.15;4.10;;;;;;;18.06;61.35;101297.81;5026100;28;20049;-78
2022/09/20 06:30:59;;;;;;;34.10;5.40;;;;;;;18.09;61.20;101294.78;5025684;28;20049;-78
2022/09/20 06:33:28;;;;;;;16.65;4.38;;;;;;;18.09;61.67;101294.78;5025919;28;20103;-77
2022/09/20 06:41:25;;;;;;;14.18;4.70;;;;;;;18.13;61.34;101298.81;5026605;28;20076;-79
2022/09/20 06:41:41;;;;;;;13.15;4.03;;;;;;;18.17;61.09;101287.72;5028044;28;20136;-78
2022/09/20 06:44:08;;;;;;;14.77;3.80;;;;;;;18.31;61.43;101301.31;5025934;28;20053;-78
2022/09/20 06:46:35;;;;;;;17.80;4.38;;;;;;;18.37;61.89;101302.47;5025905;28;20045;-78
2022/09/20 06:49:02;;;;;;;19.60;4.75;;;;;;;18.37;61.50;101291.72;5026805;28;20055;-78
2022/09/20 06:51:34;;;;;;;22.05;4.20;;;;;;;18.16;61.70;101254.63;5026703;28;20128;-76
2022/09/20 06:54:02;;;;;;;18.25;6.80;;;;;;;18.57;61.35;101306.47;5027581;28;20294;-78
2022/09/20 06:56:32;;;;;;;18.05;4.22;;;;;;;18.45;61.63;101282.81;5026506;28;20081;-78
2022/09/20 06:58:59;;;;;;;19.08;5.15;;;;;;;18.62;61.52;101303.28;5026122;28;20055;-77
2022/09/20 07:01:25;;;;;;;20.85;4.63;;;;;;;18.57;61.73;101302.94;5027180;28;20053;-78
2022/09/20 07:03:57;;;;;;;20.42;4.65;;;;;;;18.14;62.25;101235.16;5034163;28;20046;-80
2022/09/20 07:06:24;;;;;;;13.32;4.95;;;;;;;18.60;61.55;101316.03;5034347;28;20196;-80
2022/09/20 07:08:51;;;;;;;14.93;4.85;;;;;;;18.53;61.91;101294.38;5034634;28;20140;-80
2022/09/20 07:11:17;;;;;;;24.55;4.95;;;;;;;18.60;61.84;101291.84;5026414;28;20561;-80
2022/09/20 07:13:48;;;;;;;18.88;4.88;;;;;;;18.81;61.74;101328.09;5025917;28;20500;-78
2022/09/20 07:16:15;;;;;;;29.23;4.90;;;;;;;18.77;61.55;101311.50;5026118;28;20060;-79
2022/09/20 07:18:42;;;;;;;25.52;5.65;;;;;;;18.97;61.19;101325.38;5026568;28;20045;-78
2022/09/20 07:21:15;;;;;;;23.15;5.05;;;;;;;18.90;61.59;101341.34;5025448;28;20576;-79
2022/09/20 07:23:44;;;;;;;14.52;3.97;;;;;;;18.85;61.46;101324.06;5024448;28;20068;-78
2022/09/20 07:26:25;;;;;;;14.68;4.40;;;;;;;18.88;61.67;101339.84;5024476;28;20464;-78
2022/09/20 07:28:52;;;;;;;19.17;4.10;;;;;;;18.91;61.39;101340.38;5025011;28;20104;-79
2022/09/20 07:31:21;;;;;;;14.20;3.95;;;;;;;18.76;61.44;101328.63;5025558;28;20057;-79
2022/09/20 07:33:48;;;;;;;15.30;4.32;;;;;;;18.76;61.87;101350.13;5025165;28;20077;-78
2022/09/20 07:36:16;;;;;;;24.77;4.80;;;;;;;18.72;62.01;101340.72;5024761;28;20350;-79
2022/09/20 07:38:49;;;;;;;16.70;4.88;;;;;;;18.84;62.09;101354.69;5026200;28;20083;-79
2022/09/20 07:41:17;;;;;;;18.38;4.63;;;;;;;18.53;61.93;101305.13;5025036;28;20050;-78
2022/09/20 07:43:45;;;;;;;11.23;5.35;;;;;;;18.86;61.94;101341.88;5024183;28;20072;-78
2022/09/20 07:46:15;;;;;;;15.52;5.18;;;;;;;18.91;61.79;101353.81;5016095;28;20060;-78
2022/09/20 07:48:41;;;;;;;24.08;6.63;;;;;;;18.91;62.09;101352.94;5025127;28;20053;-77
2022/09/20 07:51:12;;;;;;;14.48;4.82;;;;;;;18.88;61.66;101346.06;5025054;28;20056;-79
2022/09/20 07:53:40;;;;;;;10.88;4.15;;;;;;;18.81;61.20;101352.31;5025381;28;20602;-77
2022/09/20 07:56:09;;;;;;;11.27;4.00;;;;;;;18.85;61.33;101367.94;5025329;28;20045;-79
2022/09/20 07:58:36;;;;;;;11.40;3.97;;;;;;;18.75;61.65;101346.59;5028067;28;20061;-80
2022/09/20 08:01:08;;;;;;;18.90;4.88;;;;;;;18.83;60.99;101353.00;5044051;28;20421;-78
2022/09/20 08:03:36;;;;;;;12.40;4.82;;;;;;;18.78;61.51;101356.19;5029149;28;20057;-79
2022/09/20 08:06:08;;;;;;;14.00;4.35;;;;;;;18.74;60.98;101352.16;5045040;28;20057;-77
2022/09/20 08:08:37;;;;;;;14.75;4.57;;;;;;;18.82;61.33;101357.53;5028354;28;20572;-79
2022/09/20 08:11:13;;;;;;;16.83;4.75;;;;;;;18.55;61.69;101313.88;5029907;28;20053;-76
2022/09/20 08:13:48;;;;;;;19.73;4.70;;;;;;;18.96;60.69;101375.66;5030260;28;20077;-76
2022/09/20 08:16:43;;;;;;;11.38;4.47;;;;;;;18.97;60.93;101380.00;5042154;28;20045;-78
2022/09/20 08:19:18;;;;;;;10.55;4.25;;;;;;;19.03;61.02;101372.25;5028464;28;20104;-77
2022/09/20 08:21:45;;;;;;;19.58;4.75;;;;;;;19.11;60.25;101366.88;5028592;28;20053;-79
2022/09/20 08:24:12;;;;;;;12.48;4.40;;;;;;;19.15;60.56;101378.94;5028287;28;20057;-78
2022/09/20 08:26:38;;;;;;;11.15;3.38;;;;;;;19.15;60.80;101378.94;5028276;28;20053;-76
2022/09/20 08:29:05;;;;;;;23.50;5.22;;;;;;;19.09;61.15;101375.09;5027615;28;20103;-78
2022/09/20 08:31:35;;;;;;;15.65;4.80;;;;;;;18.15;60.88;101210.78;5027246;28;20669;-76
2022/09/20 08:34:05;;;;;;;17.48;3.95;;;;;;;19.24;60.66;101383.28;5030153;28;20054;-79
2022/09/20 08:36:33;;;;;;;13.75;3.90;;;;;;;18.76;61.24;101293.66;5045243;28;20054;-77
2022/09/20 08:39:03;;;;;;;23.15;4.68;;;;;;;19.48;60.35;101365.34;5029432;28;20567;-78
2022/09/20 08:42:12;;;;;;;21.75;3.75;;;;;;;19.63;59.37;101390.50;5044042;28;20049;-79
2022/09/20 08:44:51;;;;;;;12.57;4.60;;;;;;;19.32;59.03;101313.28;5030129;28;20068;-79
2022/09/20 08:47:37;;;;;;;10.75;3.78;;;;;;;19.80;59.04;101392.13;5030277;28;20052;-80
2022/09/20 08:50:06;;;;;;;20.45;5.75;;;;;;;19.61;60.06;101379.06;5028413;28;20057;-76
2022/09/20 08:52:38;;;;;;;11.80;4.72;;;;;;;19.68;60.05;101390.00;5027728;28;20045;-78
2022/09/20 08:55:21;;;;;;;14.20;4.88;;;;;;;19.63;60.06;101377.03;5027666;28;20049;-77
2022/09/20 08:57:54;;;;;;;21.92;5.22;;;;;;;19.75;60.01;101382.91;5029137;28;20509;-79
2022/09/20 09:00:41;;;;;;;21.85;5.13;;;;;;;19.15;59.98;101249.75;5029030;28;20465;-79
2022/09/20 09:03:13;;;;;;;10.52;5.20;;;;;;;19.97;59.86;101381.25;5026314;28;20067;-77
2022/09/20 09:05:52;;;;;;;15.75;5.13;;;;;;;20.04;59.00;101379.50;5027914;28;20481;-78
2022/09/20 09:08:23;;;;;;;17.50;4.88;;;;;;;20.01;59.09;101361.00;5027242;28;20140;-78
2022/09/20 09:10:57;;;;;;;11.82;5.13;;;;;;;20.26;59.29;101394.00;5029282;28;20394;-76
2022/09/20 09:13:42;;;;;;;18.58;6.13;;;;;;;19.85;58.54;101299.97;5027663;28;20147;-77
2022/09/20 09:16:15;;;;;;;17.58;4.85;;;;;;;20.54;57.83;101379.94;5028800;28;20144;-78
2022/09/20 09:18:50;;;;;;;13.88;4.57;;;;;;;20.66;57.75;101379.34;5027583;28;20115;-78
2022/09/20 09:21:18;;;;;;;18.20;5.50;;;;;;;20.84;57.05;101386.25;5027930;28;20061;-78
2022/09/20 09:24:00;;;;;;;22.23;5.38;;;;;;;20.99;56.30;101373.59;5027368;28;20061;-79
2022/09/20 09:26:35;;;;;;;21.17;4.63;;;;;;;21.08;56.12;101371.63;5028396;28;20052;-80
2022/09/20 09:29:25;;;;;;;12.93;3.97;;;;;;;21.23;56.42;101379.72;5029341;28;20498;-80
2022/09/20 09:31:53;;;;;;;19.00;5.43;;;;;;;21.26;56.61;101377.50;5021674;28;20057;-81
2022/09/20 09:34:30;;;;;;;13.93;3.90;;;;;;;21.46;55.87;101375.06;5026152;28;20050;-81
2022/09/20 09:36:57;;;;;;;15.90;3.97;;;;;;;21.60;55.95;101375.22;5026824;28;20077;-83
2022/09/20 09:39:30;;;;;;;8.15;3.65;;;;;;;21.63;55.32;101380.25;5026333;28;20473;-82
2022/09/20 09:41:59;;;;;;;14.30;5.40;;;;;;;21.54;54.67;101339.84;5027287;28;20100;-82
2022/09/20 09:44:32;;;;;;;14.38;3.95;;;;;;;21.87;54.99;101377.19;5025723;28;20053;-82
2022/09/20 09:47:00;;;;;;;17.13;4.68;;;;;;;21.91;55.15;101367.66;5022675;28;20072;-81
2022/09/20 09:49:34;;;;;;;14.70;5.18;;;;;;;22.00;54.75;101370.25;5018687;28;20153;-81
2022/09/20 09:52:25;;;;;;;16.17;4.82;;;;;;;21.90;54.21;101330.84;5025490;28;20057;-80
2022/09/20 09:54:59;;;;;;;16.38;4.72;;;;;;;21.87;53.07;101274.50;5026138;28;20132;-82
2022/09/20 09:57:55;;;;;;;13.25;4.18;;;;;;;22.33;52.95;101311.06;5025600;28;20053;-81
2022/09/20 10:00:23;;;;;;;;;;;;;;;22.68;52.18;101363.34;5026149;28;20041;-81
2022/09/20 10:02:52;;;;;;;10.05;3.65;;;;;;;22.88;52.00;101359.94;5024620;28;19952;-80
2022/09/20 10:05:19;;;;;;;10.85;4.35;;;;;;;22.50;51.33;101277.28;5025081;28;20041;-79
2022/09/20 10:07:50;;;;;;;18.35;4.40;;;;;;;23.14;51.50;101351.97;5026821;28;20056;-79
2022/09/20 10:10:49;;;;;;;10.20;3.60;;;;;;;23.31;50.42;101340.81;5026833;28;20559;-81
2022/09/20 10:13:38;;;;;;;17.20;3.83;;;;;;;23.56;49.79;101350.03;5021520;28;20584;-81
2022/09/20 10:16:31;;;;;;;16.23;4.13;;;;;;;23.16;49.64;101271.38;5025620;28;20501;-81
2022/09/20 10:19:10;;;;;;;13.90;4.25;;;;;;;23.72;49.18;101348.00;5024089;28;20045;-80
2022/09/20 10:22:01;;;;;;;14.05;3.28;;;;;;;23.75;49.19;101317.81;5041087;28;20046;-80
2022/09/20 10:24:49;;;;;;;13.05;3.25;;;;;;;23.44;48.70;101254.13;5026724;28;20059;-81
2022/09/20 10:27:24;;;;;;;10.88;3.60;;;;;;;24.20;48.50;101337.88;5042276;28;20054;-81
2022/09/20 10:30:09;;;;;;;8.88;3.17;;;;;;;24.15;47.69;101293.41;5041769;28;20603;-80
2022/09/20 10:32:50;;;;;;;13.45;2.85;;;;;;;24.08;47.42;101261.72;5026241;28;20057;-82
2022/09/20 10:35:28;;;;;;;10.35;3.63;;;;;;;24.59;46.74;101300.06;5041648;28;20060;-81
2022/09/20 10:38:18;;;;;;;12.40;3.33;;;;;;;24.98;45.74;101341.72;5032269;28;20045;-80
2022/09/20 10:43:57;;;;;;;11.80;2.75;;;;;;;24.76;45.62;101336.59;5026456;28;20311;-82
2022/09/20 10:46:55;;;;;;;11.40;2.83;;;;;;;24.59;45.85;101344.34;5026482;28;20201;-81
2022/09/20 10:49:40;;;;;;;;;;;;;;;24.56;46.54;101335.78;5025861;28;20160;-80
2022/09/20 10:52:44;;;;;;;9.98;2.72;;;;;;;24.76;46.09;101336.59;5025185;28;20033;-80
2022/09/20 10:55:28;;;;;;;8.43;2.88;;;;;;;24.95;44.73;101335.69;5025115;28;20303;-80
2022/09/20 10:58:13;;;;;;;6.50;2.30;;;;;;;24.60;45.32;101326.19;5025217;28;20131;-81
2022/09/20 11:01:01;;;;;;;15.05;3.15;;;;;;;24.50;45.55;101327.44;5024255;28;20037;-81
2022/09/20 11:03:51;;;;;;;10.57;2.40;;;;;;;24.43;46.23;101318.44;5021139;28;20289;-81
2022/09/20 11:06:28;;;;;;;8.53;1.83;;;;;;;24.23;46.15;101264.22;5011174;28;20116;-81
2022/09/20 11:08:58;;;;;;;11.88;2.60;;;;;;;24.52;45.00;101246.63;5025153;28;20304;-82
2022/09/20 11:11:40;;;;;;;9.10;2.58;;;;;;;25.15;44.59;101318.50;5024863;28;20060;-80
2022/09/20 11:14:16;;;;;;;8.25;2.17;;;;;;;25.44;43.85;101318.97;5026186;28;20053;-81
2022/09/20 11:17:00;;;;;;;10.75;2.50;;;;;;;25.49;43.44;101294.72;5025817;28;20050;-78
2022/09/20 11:19:42;;;;;;;7.15;2.05;;;;;;;25.63;43.18;101323.47;5026010;28;20103;-79
2022/09/20 11:22:33;;;;;;;10.55;2.22;;;;;;;25.59;42.92;101322.25;5025194;28;20474;-80
2022/09/20 11:25:17;;;;;;;8.55;2.40;;;;;;;25.70;42.99;101301.69;5026799;28;20049;-80
2022/09/20 11:27:54;;;;;;;9.57;2.45;;;;;;;25.87;42.61;101307.44;5033515;28;20342;-78
2022/09/20 11:30:22;;;;;;;6.35;2.05;;;;;;;25.83;42.93;101279.00;5034779;28;20059;-80
2022/09/20 11:32:54;;;;;;;11.32;2.53;;;;;;;25.73;42.04;101258.59;5033265;28;20372;-79
2022/09/20 11:35:26;;;;;;;;;;;;;;;26.14;41.66;101299.91;5031889;28;20461;-81
2022/09/20 11:38:01;;;;;;;9.23;2.42;;;;;;;26.03;41.28;101268.81;5031813;28;20108;-79
2022/09/20 11:40:33;;;;;;;3.88;1.73;;;;;;;25.90;40.84;101269.78;5031780;28;20072;-79
2022/09/20 11:43:05;;;;;;;10.88;2.85;;;;;;;25.66;41.63;101274.13;5032884;28;20572;-79
2022/09/20 11:45:33;;;;;;;5.47;1.80;;;;;;;25.96;41.20;101257.16;5033164;28;20493;-80
2022/09/20 11:48:09;;;;;;;9.50;2.08;;;;;;;26.42;39.93;101283.09;5032846;28;20528;-79
2022/09/20 11:51:08;;;;;;;5.03;1.58;;;;;;;26.64;39.30;101273.47;5032065;28;20140;-78
2022/09/20 11:54:10;;;;;;;10.45;2.03;;;;;;;27.07;38.47;101275.25;5031480;28;20049;-78
2022/09/20 11:56:37;;;;;;;9.65;1.85;;;;;;;27.28;37.84;101270.38;5009637;28;20057;-79
2022/09/20 11:59:39;;;;;;;7.85;1.58;;;;;;;27.19;37.06;101261.72;5023536;28;20539;-78
2022/09/20 12:02:24;;;;;;;5.07;1.70;;;;;;;27.02;37.78;101261.50;5031007;28;20148;-77
2022/09/20 12:04:55;;;;;;;4.88;1.50;;;;;;;26.71;38.62;101256.22;5047685;28;20049;-78
2022/09/20 12:07:36;;;;;;;5.97;1.92;;;;;;;26.54;38.68;101253.28;5031343;28;20102;-78
2022/09/20 12:10:07;;;;;;;5.85;1.75;;;;;;;26.25;38.54;101220.25;5031388;28;20140;-77
2022/09/20 12:12:45;;;;;;;4.35;1.70;;;;;;;26.37;38.51;101244.84;5032542;28;20068;-77
2022/09/20 12:15:39;;;;;;;7.28;2.20;;;;;;;25.84;38.68;101204.53;5031270;28;20045;-79
2022/09/20 12:18:28;;;;;;;7.60;1.90;;;;;;;26.00;39.12;101245.63;5030256;28;20428;-77
2022/09/20 12:20:54;;;;;;;9.18;2.00;;;;;;;26.10;38.87;101236.94;5031020;28;20528;-78
2022/09/20 12:23:39;;;;;;;6.82;1.42;;;;;;;25.97;37.86;101237.06;5030689;28;20060;-80
2022/09/20 12:26:15;;;;;;;10.55;1.95;;;;;;;25.03;38.64;101128.19;5031268;28;20041;-79
2022/09/20 12:28:44;;;;;;;12.50;1.95;;;;;;;25.57;38.93;101221.06;5048024;28;20053;-79